Time;durP1;ratioP1;P1;durP2;ratioP2;P2;SDS_P1;SDS_P2;PMS_P1;PMS_P2;Temp;Humidity;BMP_temperature;BMP_pressure;BME280_temperature;BME280_humidity;BME280_pressure;Samples;Min_cycle;Max_cycle;Signal;HPM_P1;HPM_P2
2021/12/25 00:00:10;;;;;;;6.25;2.83;;;;;;;-5.25;79.96;99603.84;5062476;28;20043;-66
2021/12/25 00:02:36;;;;;;;2.55;1.67;;;;;;;-5.18;79.93;99599.91;5062248;28;20032;-67
2021/12/25 00:05:03;;;;;;;5.10;1.67;;;;;;;-5.12;79.92;99600.16;5063635;28;20029;-68
2021/12/25 00:07:28;;;;;;;4.55;1.65;;;;;;;-5.04;79.93;99602.13;5063667;28;20116;-68
2021/12/25 00:09:54;;;;;;;8.75;2.40;;;;;;;-5.00;79.98;99598.94;5063567;28;20067;-68
2021/12/25 00:12:19;;;;;;;5.22;1.77;;;;;;;-4.95;79.62;99606.72;5063632;28;20036;-68
2021/12/25 00:14:44;;;;;;;5.10;1.67;;;;;;;-4.93;79.52;99611.03;5063265;28;20013;-67
2021/12/25 00:17:10;;;;;;;5.30;1.75;;;;;;;-4.92;79.59;99604.31;5062989;28;20021;-68
2021/12/25 00:19:35;;;;;;;4.72;1.70;;;;;;;-4.93;79.23;99615.22;5062044;28;20487;-67
2021/12/25 00:22:01;;;;;;;2.35;1.65;;;;;;;-4.97;78.71;99614.25;5062968;28;20252;-69
2021/12/25 00:24:26;;;;;;;2.95;1.88;;;;;;;-4.94;78.55;99624.50;5062718;28;20457;-68
2021/12/25 00:34:40;;;;;;;3.60;2.10;;;;;;;-5.08;78.83;99615.47;5062848;28;20029;-67
2021/12/25 00:37:07;;;;;;;6.13;2.17;;;;;;;-5.10;79.01;99623.84;5062664;28;20024;-67
2021/12/25 00:39:33;;;;;;;6.32;2.10;;;;;;;-5.17;79.01;99621.88;5062691;28;20035;-69
2021/12/25 00:42:03;;;;;;;3.63;1.58;;;;;;;-5.23;79.01;99630.06;5062472;28;20060;-66
2021/12/25 00:44:29;;;;;;;4.35;2.22;;;;;;;-5.26;78.51;99636.66;5061365;28;20046;-66
2021/12/25 00:46:55;;;;;;;4.53;2.00;;;;;;;-5.24;78.79;99648.56;5062600;28;20089;-66
2021/12/25 00:49:21;;;;;;;3.03;1.70;;;;;;;-5.27;78.04;99650.97;5062709;28;20108;-66
2021/12/25 00:51:46;;;;;;;2.33;1.42;;;;;;;-5.34;78.17;99651.53;5062609;28;20441;-67
2021/12/25 00:54:12;;;;;;;4.80;1.92;;;;;;;-5.43;78.16;99651.13;5062615;28;20086;-67
2021/12/25 00:56:38;;;;;;;3.65;1.90;;;;;;;-5.44;78.32;99664.53;5062782;28;20032;-67
2021/12/25 00:59:03;;;;;;;3.67;1.92;;;;;;;-5.49;78.45;99655.09;5062680;28;20139;-67
2021/12/25 01:01:29;;;;;;;3.83;1.55;;;;;;;-5.58;78.54;99664.81;5062642;28;20052;-67
2021/12/25 01:03:55;;;;;;;1.48;1.15;;;;;;;-5.60;78.34;99661.34;5062773;28;20048;-67
2021/12/25 01:06:20;;;;;;;2.25;1.63;;;;;;;-5.62;78.22;99662.91;5062490;28;20033;-67
2021/12/25 01:08:46;;;;;;;2.50;1.70;;;;;;;-5.67;77.69;99675.38;5062660;28;20017;-67
2021/12/25 01:11:12;;;;;;;1.55;1.25;;;;;;;-5.71;77.68;99670.97;5062465;28;20040;-67
2021/12/25 01:13:44;;;;;;;6.38;1.42;;;;;;;-5.76;77.59;99675.81;5062472;28;20032;-67
2021/12/25 01:19:01;;;;;;;9.05;1.50;;;;;;;-5.82;77.48;99678.06;5063080;28;20032;-67
2021/12/25 01:39:29;;;;;;;1.38;1.05;;;;;;;-6.03;77.01;99710.78;5063473;28;20052;-66
2021/12/25 01:42:07;;;;;;;1.48;1.13;;;;;;;-6.07;76.89;99714.84;5065951;28;20127;-66
2021/12/25 01:50:05;;;;;;;3.42;1.38;;;;;;;-6.05;76.97;99715.81;5066155;28;20162;-67
2021/12/25 01:52:31;;;;;;;6.28;1.30;;;;;;;-6.04;77.23;99721.72;5065827;28;20025;-66
2021/12/25 01:55:00;;;;;;;5.25;1.52;;;;;;;-6.01;77.08;99724.38;5066160;28;20096;-68
2021/12/25 01:57:27;;;;;;;6.07;1.63;;;;;;;-6.00;76.43;99734.56;5064652;28;20047;-68
2021/12/25 01:59:52;;;;;;;4.38;1.63;;;;;;;-5.95;76.08;99736.44;5065905;28;20055;-67
2021/12/25 02:02:18;;;;;;;2.20;1.33;;;;;;;-6.01;75.84;99729.44;5065623;28;20028;-68
2021/12/25 02:04:43;;;;;;;2.13;1.45;;;;;;;-5.96;76.07;99735.59;5064333;28;20078;-68
2021/12/25 02:07:09;;;;;;;4.18;1.60;;;;;;;-5.99;76.36;99731.22;5064193;28;20092;-67
2021/12/25 02:09:35;;;;;;;2.45;1.25;;;;;;;-6.00;76.76;99734.56;5065718;28;20036;-68
2021/12/25 02:12:00;;;;;;;3.15;1.30;;;;;;;-5.97;76.35;99747.34;5065518;28;20171;-68
2021/12/25 02:14:26;;;;;;;2.42;1.10;;;;;;;-5.95;76.24;99738.94;5065858;28;20500;-67
2021/12/25 02:17:00;;;;;;;2.13;1.10;;;;;;;-5.91;76.10;99746.75;5065424;28;20070;-67
2021/12/25 02:19:42;;;;;;;1.65;0.95;;;;;;;-5.91;75.66;99744.22;5065941;28;20017;-67
2021/12/25 02:22:09;;;;;;;1.40;1.20;;;;;;;-5.95;75.62;99749.06;5065788;28;20473;-66
2021/12/25 02:24:36;;;;;;;3.13;1.30;;;;;;;-5.88;75.56;99757.00;5065683;28;20044;-66
2021/12/25 02:27:03;;;;;;;4.25;1.17;;;;;;;-5.91;75.82;99748.44;5065484;28;20021;-66
2021/12/25 02:29:29;;;;;;;1.55;0.95;;;;;;;-5.91;75.86;99748.44;5065529;28;20039;-67
2021/12/25 02:31:55;;;;;;;2.10;1.20;;;;;;;-5.88;76.01;99767.13;5065221;28;20051;-66
2021/12/25 02:34:21;;;;;;;3.13;1.50;;;;;;;-5.88;75.96;99766.28;5065314;28;20469;-67
2021/12/25 02:36:46;;;;;;;6.43;1.38;;;;;;;-5.89;75.97;99762.00;5065115;28;20248;-67
2021/12/25 02:39:12;;;;;;;2.60;1.33;;;;;;;-5.90;75.97;99765.31;5065291;28;20032;-67
2021/12/25 02:41:37;;;;;;;2.35;1.35;;;;;;;-5.94;75.86;99769.38;5065157;28;20025;-68
2021/12/25 02:44:03;;;;;;;1.77;1.10;;;;;;;-5.94;75.88;99774.41;5063780;28;20017;-67
2021/12/25 02:46:28;;;;;;;1.80;1.15;;;;;;;-5.94;75.83;99783.69;5064952;28;20101;-66
2021/12/25 02:48:56;;;;;;;1.77;1.20;;;;;;;-5.95;75.71;99772.69;5065148;28;20055;-67
2021/12/25 02:51:22;;;;;;;1.73;1.20;;;;;;;-6.01;75.61;99779.97;5064419;28;20033;-68
2021/12/25 02:53:47;;;;;;;3.78;1.05;;;;;;;-6.04;74.97;99783.25;5065279;28;20052;-67
2021/12/25 02:56:12;;;;;;;2.83;1.35;;;;;;;-6.03;75.41;99781.56;5064899;28;20035;-68
2021/12/25 02:58:38;;;;;;;2.20;1.30;;;;;;;-6.06;75.61;99774.75;5064925;28;20469;-67
2021/12/25 03:01:09;;;;;;;1.70;1.15;;;;;;;-6.09;75.79;99777.13;5064374;28;20021;-67
2021/12/25 03:03:35;;;;;;;3.03;1.40;;;;;;;-6.14;75.73;99770.97;5064689;28;20029;-68
2021/12/25 03:06:03;;;;;;;4.72;1.40;;;;;;;-6.14;75.47;99769.31;5064587;28;20036;-67
2021/12/25 03:08:28;;;;;;;1.80;1.33;;;;;;;-6.18;75.82;99769.09;5064535;28;20021;-67
2021/12/25 03:10:54;;;;;;;3.63;1.05;;;;;;;-6.21;75.93;99779.91;5064159;28;20454;-67
2021/12/25 03:13:42;;;;;;;2.78;1.50;;;;;;;-6.20;75.39;99788.34;5064433;28;20071;-67
2021/12/25 03:16:07;;;;;;;3.10;1.50;;;;;;;-6.24;75.54;99798.31;5064453;28;20070;-66
2021/12/25 03:18:39;;;;;;;2.08;1.40;;;;;;;-6.30;75.49;99787.91;5064608;28;20229;-67
2021/12/25 03:21:06;;;;;;;2.28;1.08;;;;;;;-6.34;75.55;99780.94;5064366;28;20033;-67
2021/12/25 03:23:33;;;;;;;1.67;1.08;;;;;;;-6.37;75.47;99783.31;5063168;28;20132;-68
2021/12/25 03:26:01;;;;;;;1.17;0.90;;;;;;;-6.38;75.44;99785.00;5064083;28;20021;-68
2021/12/25 03:28:30;;;;;;;3.20;1.30;;;;;;;-6.39;75.72;99787.44;5062250;28;20029;-67
2021/12/25 03:30:59;;;;;;;2.63;2.10;;;;;;;-6.36;75.91;99796.03;5063296;28;20029;-67
2021/12/25 03:33:26;;;;;;;2.70;1.88;;;;;;;-6.39;75.46;99789.97;5064154;28;20021;-67
2021/12/25 03:35:51;;;;;;;1.67;1.02;;;;;;;-6.37;75.73;99791.78;5064041;28;20509;-68
2021/12/25 03:38:19;;;;;;;2.70;1.33;;;;;;;-6.39;75.76;99797.56;5064029;28;20112;-66
2021/12/25 03:40:45;;;;;;;3.88;1.35;;;;;;;-6.44;74.89;99789.75;5063830;28;20024;-66
2021/12/25 03:43:11;;;;;;;4.47;1.20;;;;;;;-6.38;74.90;99794.22;5063737;28;20039;-66
2021/12/25 03:45:37;;;;;;;4.78;1.08;;;;;;;-6.40;75.79;99790.75;5063823;28;20021;-66
2021/12/25 03:58:52;;;;;;;2.15;1.15;;;;;;;-6.56;76.46;99815.22;5063802;28;20027;-66
2021/12/25 04:01:56;;;;;;;2.88;1.30;;;;;;;-6.56;76.19;99811.81;5063562;28;20025;-67
2021/12/25 04:04:18;;;;;;;1.70;1.38;;;;;;;-6.56;76.35;99811.81;5060552;28;20049;-67
2021/12/25 04:06:54;;;;;;;1.73;1.10;;;;;;;-6.60;75.65;99810.81;5063758;28;20032;-66
2021/12/25 04:09:24;;;;;;;4.10;1.13;;;;;;;-6.56;76.45;99820.28;5063120;28;20028;-67
2021/12/25 04:11:51;;;;;;;1.40;1.13;;;;;;;-6.62;76.64;99830.06;5062788;28;20063;-65
2021/12/25 04:14:16;;;;;;;7.25;1.20;;;;;;;-6.62;76.81;99837.66;5063200;28;20025;-67
2021/12/25 04:16:41;;;;;;;1.38;1.00;;;;;;;-6.68;76.66;99834.81;5062949;28;20032;-66
2021/12/25 04:19:07;;;;;;;1.98;1.42;;;;;;;-6.72;76.71;99838.81;5063008;28;20028;-67
2021/12/25 04:21:35;;;;;;;3.75;1.92;;;;;;;-6.76;76.67;99842.88;5063103;28;20096;-66
2021/12/25 04:24:00;;;;;;;1.95;1.05;;;;;;;-6.79;76.84;99841.81;5062958;28;20078;-67
2021/12/25 04:26:26;;;;;;;1.60;1.20;;;;;;;-6.77;76.94;99856.25;5062837;28;20100;-67
2021/12/25 05:04:00;;;;;;;3.05;1.65;;;;;;;-6.78;77.44;99864.63;5062916;28;20037;-67
2021/12/25 05:06:25;;;;;;;4.47;1.42;;;;;;;-6.72;77.21;99870.00;5061561;28;20196;-68
2021/12/25 05:08:52;;;;;;;5.05;1.83;;;;;;;-6.70;77.32;99869.19;5063281;28;20457;-66
2021/12/25 05:11:17;;;;;;;5.72;2.75;;;;;;;-6.72;77.54;99872.53;5062674;28;20291;-66
2021/12/25 05:13:45;;;;;;;10.80;4.55;;;;;;;-6.82;77.12;99866.91;5063097;28;20462;-67
2021/12/25 05:16:11;;;;;;;6.25;3.22;;;;;;;-6.82;77.25;99867.75;5066530;28;20064;-67
2021/12/25 05:18:36;;;;;;;5.35;2.55;;;;;;;-6.88;77.00;99863.25;5065395;28;20029;-67
2021/12/25 05:21:02;;;;;;;4.75;2.20;;;;;;;-6.84;77.29;99880.28;5065077;28;20029;-68
2021/12/25 05:23:27;;;;;;;2.28;1.38;;;;;;;-6.86;77.48;99881.88;5066732;28;20036;-68
2021/12/25 05:25:53;;;;;;;2.67;1.73;;;;;;;-6.87;77.62;99881.81;5066450;28;20099;-67
2021/12/25 05:28:25;;;;;;;5.20;2.63;;;;;;;-6.88;77.44;99882.56;5065150;28;20040;-67
2021/12/25 05:30:52;;;;;;;2.13;1.70;;;;;;;-6.86;77.39;99891.09;5066395;28;20040;-67
2021/12/25 05:33:18;;;;;;;4.78;1.15;;;;;;;-6.90;77.48;99890.06;5066389;28;20029;-68
2021/12/25 05:35:43;;;;;;;4.65;1.60;;;;;;;-6.94;77.42;99885.66;5048218;28;20354;-67
2021/12/25 05:38:14;;;;;;;2.63;1.50;;;;;;;-6.97;77.39;99883.84;5066264;28;20366;-66
2021/12/25 05:40:39;;;;;;;1.85;1.02;;;;;;;-6.99;77.32;99894.63;5066545;28;20100;-67
2021/12/25 05:43:05;;;;;;;2.83;1.20;;;;;;;-6.96;77.19;99902.34;5066226;28;20075;-67
2021/12/25 05:45:31;;;;;;;2.55;1.20;;;;;;;-7.00;76.66;99891.25;5066005;28;20244;-67
2021/12/25 05:47:57;;;;;;;1.70;1.13;;;;;;;-6.93;76.86;99905.03;5064858;28;20017;-67
2021/12/25 05:50:22;;;;;;;1.27;1.10;;;;;;;-6.93;77.11;99891.56;5066008;28;20489;-66
2021/12/25 05:52:48;;;;;;;2.63;1.38;;;;;;;-6.86;76.41;99899.56;5065721;28;20028;-67
2021/12/25 05:55:13;;;;;;;1.38;1.10;;;;;;;-6.91;76.46;99884.94;5065877;28;20021;-68
2021/12/25 05:57:39;;;;;;;6.85;1.40;;;;;;;-6.79;76.97;99897.38;5065935;28;20028;-67
2021/12/25 06:00:07;;;;;;;3.40;1.40;;;;;;;-6.76;77.43;99892.47;5065844;28;20353;-67
2021/12/25 06:02:32;;;;;;;8.57;1.20;;;;;;;-6.76;77.66;99902.56;5065634;28;20110;-68
2021/12/25 06:05:00;;;;;;;3.42;1.45;;;;;;;-6.76;77.46;99895.00;5065816;28;20526;-68
2021/12/25 06:07:26;;;;;;;3.08;1.40;;;;;;;-6.78;77.63;99899.97;5065510;28;20013;-67
2021/12/25 06:09:51;;;;;;;1.58;1.00;;;;;;;-6.78;77.52;99894.03;5065612;28;20024;-66
2021/12/25 06:12:17;;;;;;;1.58;0.98;;;;;;;-6.78;77.57;99899.09;5065652;28;20088;-67
2021/12/25 06:14:44;;;;;;;2.97;1.30;;;;;;;-6.85;77.62;99893.72;5065608;28;20029;-68
2021/12/25 06:17:10;;;;;;;2.53;1.20;;;;;;;-6.83;77.59;99896.31;5065404;28;20037;-67
2021/12/25 06:19:35;;;;;;;1.70;0.98;;;;;;;-6.85;77.40;99900.41;5064098;28;20025;-67
2021/12/25 06:22:00;;;;;;;1.23;0.88;;;;;;;-6.79;77.48;99902.41;5065314;28;20032;-67
2021/12/25 06:24:29;;;;;;;1.08;0.85;;;;;;;-6.84;77.62;99895.44;5065080;28;20029;-67
2021/12/25 06:26:54;;;;;;;2.00;1.00;;;;;;;-6.77;77.46;99905.91;5064451;28;20020;-68
2021/12/25 06:29:20;;;;;;;3.10;1.27;;;;;;;-6.78;77.26;99904.13;5065169;28;20079;-67
2021/12/25 06:31:46;;;;;;;4.03;1.88;;;;;;;-6.83;77.58;99903.91;5063770;28;20079;-67
2021/12/25 06:34:11;;;;;;;2.92;1.08;;;;;;;-6.81;77.32;99911.53;5065454;28;20017;-67
2021/12/25 06:36:37;;;;;;;2.83;0.98;;;;;;;-6.87;77.32;99902.00;5064824;28;20031;-67
2021/12/25 06:39:03;;;;;;;2.35;1.10;;;;;;;-6.86;77.33;99913.81;5065012;28;20037;-67
2021/12/25 06:41:29;;;;;;;5.25;1.08;;;;;;;-6.87;77.40;99912.09;5063606;28;20035;-68
2021/12/25 06:43:54;;;;;;;3.30;1.35;;;;;;;-6.89;77.27;99906.09;5063649;28;20068;-67
2021/12/25 06:46:20;;;;;;;3.58;1.60;;;;;;;-6.88;77.33;99897.72;5064836;28;20025;-66
2021/12/25 06:48:45;;;;;;;3.45;1.23;;;;;;;-6.88;77.21;99892.66;5064890;28;20023;-69
2021/12/25 06:51:11;;;;;;;1.55;1.23;;;;;;;-6.90;77.21;99890.06;5064836;28;20033;-69
2021/12/25 06:53:37;;;;;;;4.50;1.15;;;;;;;-6.89;77.48;99896.00;5065167;28;20052;-68
2021/12/25 06:56:03;;;;;;;3.75;1.20;;;;;;;-6.84;77.39;99899.63;5064852;28;20021;-68
2021/12/25 06:58:29;;;;;;;1.20;0.90;;;;;;;-6.88;77.62;99885.09;5063615;28;20028;-69
2021/12/25 07:00:54;;;;;;;1.38;0.90;;;;;;;-6.84;77.66;99899.63;5064700;28;20021;-70
2021/12/25 07:03:19;;;;;;;1.58;0.90;;;;;;;-6.78;77.12;99896.56;5064484;28;20485;-68
2021/12/25 07:05:45;;;;;;;2.50;1.20;;;;;;;-6.77;76.35;99898.31;5064826;28;20056;-68
2021/12/25 07:08:10;;;;;;;1.00;0.90;;;;;;;-6.75;76.16;99894.19;5064766;28;20033;-68
2021/12/25 07:10:35;;;;;;;1.90;0.98;;;;;;;-6.73;75.82;99890.13;5062906;28;20112;-68
2021/12/25 07:13:01;;;;;;;4.05;0.93;;;;;;;-6.68;74.13;99906.38;5064368;28;20033;-68
2021/12/25 07:15:27;;;;;;;2.13;1.20;;;;;;;-6.61;73.42;99910.97;5064653;28;20025;-68
2021/12/25 07:17:52;;;;;;;1.45;1.02;;;;;;;-6.64;73.96;99897.28;5062738;28;20039;-68
2021/12/25 07:20:18;;;;;;;5.15;1.20;;;;;;;-6.55;75.94;99902.81;5064089;28;20036;-68
2021/12/25 07:22:43;;;;;;;1.88;0.95;;;;;;;-6.51;76.39;99907.28;5064162;28;20033;-68
2021/12/25 07:25:09;;;;;;;2.22;1.00;;;;;;;-6.53;76.79;99908.84;5064099;28;20124;-69
2021/12/25 07:27:34;;;;;;;2.47;1.23;;;;;;;-6.49;77.07;99913.28;5062995;28;20036;-68
2021/12/25 07:30:02;;;;;;;2.08;1.17;;;;;;;-6.49;77.27;99910.75;5063119;28;20055;-69
2021/12/25 07:32:28;;;;;;;3.15;1.15;;;;;;;-6.52;77.36;99915.66;5063336;28;20109;-69
2021/12/25 07:34:53;;;;;;;2.13;1.33;;;;;;;-6.48;77.37;99919.19;5063681;28;20020;-70
2021/12/25 07:37:18;;;;;;;1.48;1.10;;;;;;;-6.46;77.34;99922.66;5062099;28;20028;-68
2021/12/25 07:39:44;;;;;;;2.67;1.23;;;;;;;-6.43;77.40;99924.47;5063750;28;20051;-68
2021/12/25 07:42:11;;;;;;;2.05;1.38;;;;;;;-6.45;77.45;99921.88;5063504;28;20025;-68
2021/12/25 07:44:36;;;;;;;1.92;1.20;;;;;;;-6.37;77.68;99922.25;5063973;28;20505;-68
2021/12/25 07:47:08;;;;;;;2.20;1.08;;;;;;;-6.37;77.44;99920.63;5063331;28;20064;-69
2021/12/25 07:49:33;;;;;;;3.65;1.55;;;;;;;-6.28;77.63;99927.81;5063842;28;20024;-68
2021/12/25 07:51:58;;;;;;;2.00;1.13;;;;;;;-6.26;77.66;99923.69;5063249;28;20083;-68
2021/12/25 07:54:24;;;;;;;1.77;1.15;;;;;;;-6.27;77.67;99919.44;5063625;28;20103;-68
2021/12/25 07:56:49;;;;;;;2.78;1.02;;;;;;;-6.23;76.11;99921.31;5063543;28;20025;-68
2021/12/25 07:59:14;;;;;;;3.10;1.40;;;;;;;-6.23;74.08;99916.28;5063490;28;20044;-69
2021/12/25 08:01:40;;;;;;;1.17;0.80;;;;;;;-6.15;72.52;99913.28;5063052;28;20089;-68
2021/12/25 08:04:05;;;;;;;1.92;1.17;;;;;;;-6.14;71.20;99904.91;5063259;28;20021;-69
2021/12/25 08:06:32;;;;;;;3.15;1.00;;;;;;;-6.07;71.73;99914.53;5063307;28;20492;-68
2021/12/25 08:09:00;;;;;;;1.20;1.00;;;;;;;-5.95;73.40;99918.44;5063761;28;20032;-68
2021/12/25 08:11:27;;;;;;;2.25;1.13;;;;;;;-5.86;74.69;99916.38;5063138;28;20049;-69
2021/12/25 08:13:53;;;;;;;1.58;1.05;;;;;;;-5.64;76.03;99932.63;5063634;28;20029;-69
2021/12/25 08:16:18;;;;;;;1.83;1.17;;;;;;;-5.38;76.34;99925.44;5063496;28;20029;-68
2021/12/25 08:18:44;;;;;;;1.70;1.10;;;;;;;-5.13;76.43;99926.63;5063821;28;20330;-68
2021/12/25 08:21:09;;;;;;;2.78;1.17;;;;;;;-4.89;75.92;99931.94;5063459;28;20552;-68
2021/12/25 08:23:35;;;;;;;4.60;1.65;;;;;;;-4.73;75.44;99935.22;5063476;28;20025;-68
2021/12/25 08:26:01;;;;;;;1.23;0.93;;;;;;;-4.58;75.21;99942.63;5063491;28;20035;-67
2021/12/25 08:28:26;;;;;;;2.78;1.10;;;;;;;-4.48;75.27;99934.66;5063642;28;20025;-68
2021/12/25 08:30:51;;;;;;;2.00;1.05;;;;;;;-4.37;75.18;99936.81;5063409;28;20029;-68
2021/12/25 08:33:17;;;;;;;1.52;1.00;;;;;;;-4.24;75.27;99939.09;5063006;28;20443;-69
2021/12/25 08:35:42;;;;;;;1.25;0.90;;;;;;;-4.12;75.00;99942.97;5063378;28;20039;-68
2021/12/25 08:38:11;;;;;;;4.10;1.23;;;;;;;-3.87;73.48;99937.28;5063028;28;20020;-68
2021/12/25 08:40:37;;;;;;;1.77;1.30;;;;;;;-3.62;73.64;99934.91;5062994;28;20582;-69
2021/12/25 08:43:04;;;;;;;2.75;1.30;;;;;;;-3.41;73.76;99917.16;5062973;28;20096;-68
2021/12/25 08:48:09;;;;;;;3.83;1.13;;;;;;;-2.88;71.33;99933.59;5062933;28;20564;-68
2021/12/25 08:50:35;;;;;;;2.83;1.20;;;;;;;-2.61;69.54;99932.91;5066720;28;20033;-68
2021/12/25 08:53:01;;;;;;;3.00;1.30;;;;;;;-2.36;70.23;99923.63;5067088;28;20029;-68
2021/12/25 08:55:27;;;;;;;2.50;1.40;;;;;;;-1.93;70.42;99931.06;5067202;28;20060;-69
2021/12/25 08:57:52;;;;;;;1.63;1.10;;;;;;;-1.65;69.25;99920.16;5067121;28;20103;-68
2021/12/25 09:00:19;;;;;;;1.85;1.17;;;;;;;-1.15;70.52;99937.03;5067105;28;20017;-67
2021/12/25 09:02:45;;;;;;;4.07;1.42;;;;;;;-0.45;70.30;99930.63;5065466;28;20032;-68
2021/12/25 09:05:11;;;;;;;4.15;1.30;;;;;;;0.38;71.55;99937.94;5066783;28;20496;-69
2021/12/25 09:07:36;;;;;;;3.20;1.55;;;;;;;0.98;71.10;99914.66;5066663;28;20025;-68
2021/12/25 09:10:03;;;;;;;2.75;1.52;;;;;;;1.68;70.28;99934.03;5066420;28;20039;-68
2021/12/25 09:12:35;;;;;;;1.85;1.00;;;;;;;2.22;69.17;99928.25;5066283;28;20125;-68
2021/12/25 09:15:00;;;;;;;1.45;1.02;;;;;;;2.57;67.90;99930.53;5066410;28;20017;-68
2021/12/25 09:17:26;;;;;;;3.80;1.20;;;;;;;2.90;62.95;99935.31;5066289;28;20218;-68
2021/12/25 09:19:51;;;;;;;2.55;1.17;;;;;;;3.31;64.71;99936.75;5066235;28;20029;-68
2021/12/25 09:22:17;;;;;;;1.77;1.00;;;;;;;3.27;60.81;99932.44;5066072;28;20457;-67
2021/12/25 09:24:42;;;;;;;2.03;1.20;;;;;;;3.08;62.21;99940.72;5066355;28;20029;-68
2021/12/25 09:27:08;;;;;;;1.88;1.00;;;;;;;2.90;61.47;99938.75;5064735;28;20025;-68
2021/12/25 09:29:34;;;;;;;2.67;1.15;;;;;;;2.83;63.43;99931.78;5066072;28;20029;-66
2021/12/25 09:32:00;;;;;;;3.38;0.93;;;;;;;2.64;61.73;99920.38;5064310;28;20096;-70
2021/12/25 09:34:25;;;;;;;7.63;1.40;;;;;;;2.21;62.23;99929.06;5066247;28;20029;-70
2021/12/25 09:36:51;;;;;;;3.53;1.50;;;;;;;1.77;63.23;99941.06;5065901;28;20032;-70
2021/12/25 09:39:16;;;;;;;3.28;1.60;;;;;;;1.66;65.78;99932.28;5065937;28;20025;-71
2021/12/25 09:41:42;;;;;;;2.00;1.38;;;;;;;1.46;67.04;99935.28;5064233;28;20021;-67
2021/12/25 09:44:08;;;;;;;1.63;0.90;;;;;;;1.60;68.92;99935.56;5066000;28;20113;-69
2021/12/25 09:46:34;;;;;;;1.75;1.10;;;;;;;1.93;66.26;99942.19;5065488;28;20086;-69
2021/12/25 09:49:00;;;;;;;4.07;1.20;;;;;;;2.66;65.42;99934.97;5065620;28;20021;-70
2021/12/25 09:51:25;;;;;;;2.80;1.38;;;;;;;3.64;64.05;99935.50;5065535;28;20016;-69
2021/12/25 09:54:14;;;;;;;9.27;1.10;;;;;;;4.72;63.78;99928.84;5065437;28;20032;-67
2021/12/25 09:56:45;;;;;;;3.47;1.00;;;;;;;5.41;58.99;99937.03;5065485;28;20113;-70
2021/12/25 09:59:11;;;;;;;2.10;1.02;;;;;;;6.19;60.23;99925.31;5065248;28;20544;-70
2021/12/25 10:01:42;;;;;;;3.33;1.17;;;;;;;6.93;57.92;99927.91;5063972;28;20497;-69
2021/12/25 10:04:11;;;;;;;2.83;1.10;;;;;;;7.40;57.35;99926.09;5065492;28;20496;-69
2021/12/25 10:06:39;;;;;;;4.68;1.30;;;;;;;7.93;57.67;99928.47;5065361;28;20573;-70
2021/12/25 10:09:16;;;;;;;4.40;1.45;;;;;;;8.16;57.88;99919.69;5065634;28;20032;-70
2021/12/25 10:12:05;;;;;;;1.95;1.20;;;;;;;8.25;54.26;99923.97;5065290;28;20057;-70
2021/12/25 10:14:31;;;;;;;3.90;1.35;;;;;;;8.26;54.07;99919.66;5063738;28;20048;-71
2021/12/25 10:16:56;;;;;;;5.25;2.05;;;;;;;8.13;53.35;99916.28;5064947;28;20024;-70
2021/12/25 10:19:27;;;;;;;1.60;1.30;;;;;;;7.83;53.60;99916.44;5065350;28;20043;-71
2021/12/25 10:22:10;;;;;;;3.42;1.20;;;;;;;7.47;53.56;99910.56;5065104;28;20036;-71
2021/12/25 10:24:48;;;;;;;3.05;1.27;;;;;;;7.22;56.24;99908.06;5064973;28;20028;-70
2021/12/25 10:27:16;;;;;;;2.78;1.40;;;;;;;6.86;59.60;99909.00;5065193;28;20025;-71
2021/12/25 10:29:42;;;;;;;2.08;1.23;;;;;;;6.57;61.83;99910.72;5065023;28;20084;-70
2021/12/25 10:32:38;;;;;;;2.33;1.30;;;;;;;6.04;61.42;99909.75;5065028;28;20028;-71
2021/12/25 10:35:14;;;;;;;5.38;1.52;;;;;;;6.00;65.04;99913.19;5052704;28;20037;-70
2021/12/25 10:37:41;;;;;;;2.85;1.60;;;;;;;5.67;63.81;99915.69;5065160;28;20024;-70
2021/12/25 10:40:32;;;;;;;3.10;1.70;;;;;;;5.41;66.79;99919.00;5065056;28;20088;-70
2021/12/25 10:43:00;;;;;;;2.55;1.50;;;;;;;4.80;65.55;99909.19;5065079;28;20017;-70
2021/12/25 10:45:28;;;;;;;6.57;2.10;;;;;;;4.43;67.23;99912.34;5065137;28;20029;-70
2021/12/25 10:48:10;;;;;;;2.28;1.88;;;;;;;3.96;68.76;99905.91;5064739;28;20413;-69
2021/12/25 10:50:40;;;;;;;3.50;2.10;;;;;;;3.76;70.13;99903.97;5065124;28;20025;-70
2021/12/25 10:53:42;;;;;;;3.45;2.17;;;;;;;3.53;71.49;99899.41;5064711;28;20029;-70
2021/12/25 10:56:09;;;;;;;;;;;;;;;3.25;70.39;99896.50;5002947;28;20034;-71
2021/12/25 10:58:36;;;;;;;4.00;2.10;;;;;;;3.22;72.89;99899.03;5002813;28;19952;-71
2021/12/25 11:01:05;;;;;;;4.22;2.40;;;;;;;2.94;69.72;99896.06;5002780;28;20026;-71
2021/12/25 11:03:34;;;;;;;3.15;1.73;;;;;;;2.69;67.85;99891.44;5002491;28;20034;-72
2021/12/25 11:06:06;;;;;;;3.17;1.90;;;;;;;2.40;67.24;99898.63;5002500;28;20037;-71
2021/12/25 11:08:31;;;;;;;;;;;;;;;2.14;65.58;99896.50;5003028;28;20045;-70
2021/12/25 11:11:01;;;;;;;5.05;1.60;;;;;;;1.93;67.57;99901.22;5002042;28;19917;-70
2021/12/25 11:13:34;;;;;;;3.30;1.70;;;;;;;1.78;68.48;99909.50;5001842;28;20030;-70
2021/12/25 11:16:20;;;;;;;2.85;1.90;;;;;;;1.66;68.83;99909.25;5002490;28;20399;-71
2021/12/25 11:19:12;;;;;;;2.65;1.90;;;;;;;1.67;69.56;99900.75;5002435;28;20169;-70
2021/12/25 11:21:44;;;;;;;6.55;2.10;;;;;;;1.80;69.51;99895.03;5002015;28;20041;-69
2021/12/25 11:24:16;;;;;;;3.53;2.03;;;;;;;2.11;68.60;99894.72;5002121;28;20100;-70
2021/12/25 11:26:44;;;;;;;3.80;1.80;;;;;;;2.50;68.77;99894.53;5001987;28;20026;-71
2021/12/25 11:29:13;;;;;;;4.80;2.35;;;;;;;2.83;68.54;99899.31;5009195;28;20026;-70
2021/12/25 11:31:40;;;;;;;7.93;2.22;;;;;;;2.69;67.04;99901.69;5063701;28;20016;-70
2021/12/25 11:34:06;;;;;;;7.50;2.47;;;;;;;2.42;68.11;99905.53;5064078;28;20017;-70
2021/12/25 11:36:35;;;;;;;9.95;2.83;;;;;;;2.07;67.98;99901.50;5064096;28;20475;-69
2021/12/25 11:39:01;;;;;;;4.80;1.98;;;;;;;1.92;68.95;99896.09;5064125;28;20031;-69
2021/12/25 11:41:28;;;;;;;5.07;2.67;;;;;;;1.73;69.72;99911.09;5063903;28;20503;-68
2021/12/25 11:43:55;;;;;;;5.15;2.33;;;;;;;1.53;69.38;99905.59;5062314;28;20021;-69
2021/12/25 11:46:23;;;;;;;3.70;2.28;;;;;;;1.25;68.41;99893.06;5063684;28;20040;-68
2021/12/25 11:49:05;;;;;;;6.95;2.67;;;;;;;1.08;68.46;99906.38;5063900;28;20123;-69
2021/12/25 11:51:31;;;;;;;;;;;;;;;0.92;70.28;99909.41;5064259;28;20028;-69
2021/12/25 11:58:58;;;;;;;3.72;1.88;;;;;;;0.31;72.17;99902.84;5063689;28;20025;-69
2021/12/25 12:01:42;;;;;;;3.38;2.00;;;;;;;0.15;73.43;99910.09;5062889;28;20098;-69
2021/12/25 12:04:10;;;;;;;6.50;2.72;;;;;;;-0.08;70.25;99918.00;5061117;28;20021;-67
2021/12/25 12:06:45;;;;;;;6.15;2.80;;;;;;;-0.14;71.21;99917.84;5062385;28;20021;-69
2021/12/25 12:09:15;;;;;;;5.55;3.13;;;;;;;-0.14;73.68;99918.72;5063110;28;20028;-69
2021/12/25 12:11:43;;;;;;;5.07;2.63;;;;;;;-0.27;72.04;99916.63;5061425;28;20052;-69
2021/12/25 12:14:15;;;;;;;6.13;2.40;;;;;;;-0.26;73.78;99923.47;5063271;28;20081;-69
2021/12/25 12:16:59;;;;;;;5.78;2.25;;;;;;;-0.32;74.67;99913.94;5063095;28;20058;-69
2021/12/25 12:19:32;;;;;;;7.72;2.30;;;;;;;-0.36;74.68;99912.16;5063212;28;20075;-68
2021/12/25 12:22:15;;;;;;;3.60;2.35;;;;;;;-0.42;73.24;99910.31;5063120;28;20546;-69
2021/12/25 12:27:11;;;;;;;4.05;1.83;;;;;;;-0.37;73.93;99907.88;5063202;28;20028;-68
2021/12/25 12:29:39;;;;;;;6.40;2.63;;;;;;;-0.30;74.83;99916.53;5062959;28;20029;-69
2021/12/25 12:32:44;;;;;;;2.63;1.50;;;;;;;-0.39;73.88;99920.59;5061200;28;20028;-69
2021/12/25 12:35:28;;;;;;;2.97;1.50;;;;;;;-0.33;73.90;99921.56;5060327;28;20045;-68
2021/12/25 12:37:54;;;;;;;2.75;1.30;;;;;;;-0.34;73.52;99917.28;5062842;28;20029;-68
2021/12/25 12:40:24;;;;;;;2.30;1.30;;;;;;;-0.31;73.18;99920.81;5062852;28;20025;-68
2021/12/25 12:42:58;;;;;;;2.75;1.10;;;;;;;-0.30;72.22;99922.53;5062636;28;20036;-68
2021/12/25 12:45:27;;;;;;;3.83;1.33;;;;;;;-0.27;73.17;99917.50;5062772;28;20029;-68
2021/12/25 12:48:17;;;;;;;1.50;1.15;;;;;;;-0.23;73.34;99918.47;5062678;28;20044;-68
2021/12/25 12:50:47;;;;;;;2.70;1.58;;;;;;;-0.21;73.22;99910.84;5063161;28;20021;-69
2021/12/25 12:53:13;;;;;;;4.75;1.23;;;;;;;-0.19;74.73;99915.16;5062594;28;20045;-69
2021/12/25 12:55:42;;;;;;;5.90;1.10;;;;;;;-0.15;73.25;99926.31;5062738;28;20408;-69
2021/12/25 12:58:15;;;;;;;5.18;1.35;;;;;;;-0.13;73.01;99924.69;5062881;28;20484;-69
2021/12/25 13:00:53;;;;;;;2.40;0.90;;;;;;;-0.15;73.22;99927.19;5062781;28;20271;-69
2021/12/25 13:03:19;;;;;;;1.80;0.90;;;;;;;-0.09;75.14;99923.94;5062228;28;20084;-70
2021/12/25 13:05:51;;;;;;;3.58;0.90;;;;;;;-0.08;75.10;99933.31;5062778;28;20029;-69
2021/12/25 13:08:20;;;;;;;4.20;1.10;;;;;;;-0.08;73.75;99927.38;5062531;28;20025;-68
2021/12/25 13:11:05;;;;;;;2.03;0.88;;;;;;;-0.05;75.23;99922.34;5062596;28;20056;-68